Klik op de webcam foto voor een grotere versieKlik op de webcam foto voor een grotere versie
Of klik hier voor
de webcam video


Weerstation
Wilsele-Leuven:Website of another weatherstation

Weerstation
Wilsele-Putkapel:Website of another weatherstation



Nabijgelegen vliegvelden - METAR rapporten

   
EBBR - Vaartkom-Leuven
Gewijzigd: 23-09-2020 17:50
Gedeeltelijk bewolkt    Wind: ZZW 15 km/h
Gedeeltelijk bewolkt
Wind: Wind: ZZW 15 km/h
Temperatuur: 21°C
Dauwpunt: 11°C
Vochtigheid: 53%
Barometer: 1002 hPa
Bewolking: Gedeeltelijk bewolkt
Zicht: meer dan 10 km
Bewolking: Gedeeltelijk bewolkt 1432.6 m
EBBR 231550Z 21008KT 9999 SCT047 21/11 Q1002 TEMPO 22018G28KT 4000 SHRA
EBAW - Antwerp
Gewijzigd: 23-09-2020 18:20
Licht bewolkt    Wind: ZZW 9 km/h
Licht bewolkt
Wind: Wind: ZZW 9 km/h
Temperatuur: 21°C
Dauwpunt: 12°C
Vochtigheid: 57%
Barometer: 1001 hPa
Bewolking: Licht bewolkt
Zicht: meer dan 10 km
Bewolking: Licht bewolkt 1310.6 m
EBAW 231620Z 20005KT 160V240 9999 FEW043 21/12 Q1001 NOSIG
EBLG - Liège
Gewijzigd: 23-09-2020 18:20
Licht bewolkt    Wind: ZZW 24 km/h
Licht bewolkt
Wind: Wind: ZZW 24 km/h
Temperatuur: 21°C
Dauwpunt: 11°C
Vochtigheid: 53%
Barometer: 1003 hPa
Bewolking: Licht bewolkt
Zicht: meer dan 10 km
Bewolking: Licht bewolkt 1432.6 m
EBLG 231620Z 21013KT 9999 FEW047 21/11 Q1003 NOSIG
EBCV - Mons/Bergen
Gewijzigd: 23-09-2020 18:14
Grotendeels bewolkt    Wind: ZZW 22 km/h
Grotendeels bewolkt
Wind: Wind: ZZW 22 km/h
Temperatuur: 21°C
Dauwpunt: 13°C
Vochtigheid: 60%
Barometer: 1002 hPa
Bewolking: Grotendeels bewolkt
Zicht: meer dan 10 km
Bewolking: Licht bewolkt 1280.2 m,
Grotendeels bewolkt 2987 m,
Grotendeels bewolkt 4267.2 m
EBCV 231614Z AUTO 20012KT 9999 FEW042/// BKN098/// BKN140/// 21/13 Q1002 BLU
EHBK - Maastricht
Gewijzigd: 23-09-2020 17:55
Gedeeltelijk bewolkt    Wind: ZW 30 km/h
Gedeeltelijk bewolkt
Wind: Wind: ZW 30 km/h
Temperatuur: 22°C
Dauwpunt: 11°C
Vochtigheid: 50%
Barometer: 1003 hPa
Bewolking: Gedeeltelijk bewolkt
Zicht: meer dan 10 km
Bewolking: Gedeeltelijk bewolkt
EHBK 231555Z AUTO 23016KT 9999 NSC 22/11 Q1003 NOSIG
ELLX - Luxemburg
Gewijzigd: 23-09-2020 18:20
Licht bewolkt    Wind: ZW 15 km/h
Licht bewolkt
Wind: Wind: ZW 15 km/h
Temperatuur: 21°C
Dauwpunt: 11°C
Vochtigheid: 53%
Barometer: 1006 hPa
Bewolking: Licht bewolkt
Zicht: meer dan 10 km
Bewolking: Licht bewolkt 1371.6 m
ELLX 231620Z 23008KT 9999 FEW045TCU 21/11 Q1006 NOSIG
EBOS - Oostende
Gewijzigd: 23-09-2020 18:20
Grotendeels bewolkt    Wind: Zuiden 9 km/h
Grotendeels bewolkt
Wind: Wind: Zuiden 9 km/h
Temperatuur: 18°C
Dauwpunt: 14°C
Vochtigheid: 78%
Barometer: 1000 hPa
Bewolking: Grotendeels bewolkt
Zicht: meer dan 10 km
Bewolking: Licht bewolkt 609.6 m,
Grotendeels bewolkt 1402.1 m
EBOS 231620Z 18005KT 150V210 9999 FEW020 BKN046 18/14 Q1000 TEMPO 4000 SHRA
  

Script ontwikkeld door  Saratoga-weather.org Aangepast voor de template door  Weerstation Leuven

U vindt ons ook hier:

ambientweather.net/

UK Metoffice

WeatherCloud

European Weather Network

Weather Underground

Bernelux Weather Network

AWEKAS

WeatherlinkIP

Citizen Weather Observer Program (CWOP)

HAMweather, WeatherForYou, PWS Weather

Apparatuur in gebruik:

Weer-station
Davis VUE

Weer-programma
Meteobridge

Weer-computer
Nano-SD

Webleverancier
Robohost

Davis VUE

Meteobridge

Nano-SD

Robohost